createdAt,value
2017-09-20T00:02:23.843Z,4.45
2017-09-20T00:04:53.085Z,4.78
2017-09-20T00:07:22.332Z,5.75
2017-09-20T00:09:51.678Z,3.97
2017-09-20T00:12:20.930Z,3.33
2017-09-20T00:14:50.246Z,4.20
2017-09-20T00:17:19.587Z,11.05
2017-09-20T00:19:48.802Z,3.95
2017-09-20T00:22:18.827Z,4.53
2017-09-20T00:24:48.059Z,3.85
2017-09-20T00:27:17.330Z,3.95
2017-09-20T00:29:47.332Z,7.68
2017-09-20T00:32:16.759Z,5.18
2017-09-20T00:34:46.012Z,5.18
2017-09-20T00:37:16.204Z,4.20
2017-09-20T00:39:45.448Z,4.22
2017-09-20T00:42:14.684Z,3.80
2017-09-20T00:44:43.968Z,4.87
2017-09-20T00:47:13.203Z,4.37
2017-09-20T00:49:42.446Z,5.18
2017-09-20T00:52:11.699Z,4.30
2017-09-20T00:54:40.940Z,4.70
2017-09-20T00:57:10.968Z,5.32
2017-09-20T00:59:40.245Z,5.20
2017-09-20T01:02:09.483Z,4.75
2017-09-20T01:04:38.728Z,7.37
2017-09-20T01:07:08.918Z,8.25
2017-09-20T01:09:38.155Z,7.35
2017-09-20T01:12:08.171Z,5.87
2017-09-20T01:14:37.426Z,4.25
2017-09-20T01:17:06.804Z,4.90
2017-09-20T01:19:36.038Z,5.25
2017-09-20T01:22:22.908Z,5.87
2017-09-20T01:24:52.159Z,5.35
2017-09-20T01:27:21.396Z,6.43
2017-09-20T01:29:51.404Z,6.05
2017-09-20T01:32:21.411Z,7.55
2017-09-20T01:34:51.483Z,5.82
2017-09-20T01:37:20.718Z,7.80
2017-09-20T01:39:49.960Z,5.28
2017-09-20T01:42:19.401Z,6.60
2017-09-20T01:44:48.644Z,6.03
2017-09-20T01:47:17.891Z,8.55
2017-09-20T01:49:47.176Z,6.03
2017-09-20T01:52:16.409Z,7.80
2017-09-20T01:54:45.643Z,10.82
2017-09-20T01:57:14.926Z,7.62
2017-09-20T01:59:44.931Z,6.07
2017-09-20T02:02:14.543Z,7.72
2017-09-20T02:04:43.777Z,8.45
2017-09-20T02:07:13.023Z,7.20
2017-09-20T02:09:42.449Z,7.97
2017-09-20T02:12:11.699Z,6.93
2017-09-20T02:14:40.940Z,9.77
2017-09-20T02:17:10.383Z,7.62
2017-09-20T02:19:39.630Z,6.68
2017-09-20T02:22:08.865Z,8.75
2017-09-20T02:24:38.920Z,6.12
2017-09-20T02:27:08.923Z,8.00
2017-09-20T02:29:38.207Z,7.25
2017-09-20T02:32:08.212Z,8.40
2017-09-20T02:34:38.234Z,8.63
2017-09-20T02:37:08.283Z,8.93
2017-09-20T02:39:37.523Z,8.60
2017-09-20T02:42:06.760Z,9.55
2017-09-20T02:44:36.782Z,8.10
2017-09-20T02:47:06.794Z,10.68
2017-09-20T02:49:36.831Z,10.07
2017-09-20T02:52:06.075Z,11.75
2017-09-20T02:54:35.326Z,8.18
2017-09-20T02:57:04.770Z,10.70
2017-09-20T02:59:34.020Z,7.53
2017-09-20T03:02:04.243Z,9.05
2017-09-20T03:04:33.494Z,10.95
2017-09-20T03:07:02.735Z,12.80
2017-09-20T03:09:32.793Z,10.30
2017-09-20T03:12:02.023Z,8.82
2017-09-20T03:14:31.259Z,7.82
2017-09-20T03:17:00.520Z,8.77
2017-09-20T03:19:29.753Z,10.65
2017-09-20T03:21:59.774Z,7.90
2017-09-20T03:24:29.070Z,11.43
2017-09-20T03:26:59.086Z,11.52
2017-09-20T03:29:29.378Z,10.88
2017-09-20T03:31:58.651Z,11.35
2017-09-20T03:34:27.893Z,11.30
2017-09-20T03:36:57.152Z,10.32
2017-09-20T03:39:26.399Z,9.32
2017-09-20T03:41:55.678Z,8.63
2017-09-20T03:44:24.919Z,11.07
2017-09-20T03:46:54.170Z,10.40
2017-09-20T03:49:23.421Z,10.40
2017-09-20T03:51:52.663Z,8.05
2017-09-20T03:54:21.902Z,13.60
2017-09-20T03:56:52.231Z,13.60
2017-09-20T03:59:22.431Z,13.15
2017-09-20T04:01:51.688Z,15.82
2017-09-20T04:04:20.931Z,12.32
2017-09-20T04:06:50.335Z,14.35
2017-09-20T04:09:19.571Z,18.23
2017-09-20T04:11:48.830Z,17.48
2017-09-20T04:14:18.259Z,13.20
2017-09-20T04:16:48.282Z,11.05
2017-09-20T04:19:18.322Z,12.98
2017-09-20T04:21:47.554Z,12.02
2017-09-20T04:24:16.812Z,16.85
2017-09-20T04:26:46.058Z,12.70
2017-09-20T04:29:15.349Z,15.77
2017-09-20T04:31:44.608Z,22.30
2017-09-20T04:34:14.016Z,12.55
2017-09-20T04:36:43.258Z,14.45
2017-09-20T04:39:12.499Z,12.05
2017-09-20T04:41:42.514Z,12.55
2017-09-20T04:44:12.522Z,15.63
2017-09-20T04:46:43.454Z,13.98
2017-09-20T04:49:12.716Z,14.48
2017-09-20T04:51:41.967Z,14.43
2017-09-20T04:54:12.004Z,14.27
2017-09-20T04:56:41.253Z,17.55
2017-09-20T04:59:10.514Z,15.93
2017-09-20T05:01:39.910Z,15.38
2017-09-20T05:04:09.173Z,17.92
2017-09-20T05:06:38.413Z,22.10
2017-09-20T05:09:07.675Z,19.40
2017-09-20T05:11:36.946Z,14.32
2017-09-20T05:14:06.191Z,23.90
2017-09-20T05:16:36.238Z,17.08
2017-09-20T05:19:05.486Z,15.50
2017-09-20T05:21:34.746Z,20.15
2017-09-20T05:24:04.120Z,18.65
2017-09-20T05:26:34.138Z,13.98
2017-09-20T05:29:03.573Z,12.50
2017-09-20T05:31:32.815Z,18.42
2017-09-20T05:34:02.073Z,14.38
2017-09-20T05:36:32.246Z,16.73
2017-09-20T05:39:02.259Z,17.55
2017-09-20T05:41:31.564Z,17.48
2017-09-20T05:44:01.578Z,20.08
2017-09-20T05:46:30.993Z,16.92
2017-09-20T05:49:01.013Z,17.15
2017-09-20T05:51:31.055Z,14.70
2017-09-20T05:54:00.310Z,17.60
2017-09-20T05:56:29.550Z,19.17
2017-09-20T05:58:58.810Z,16.95
2017-09-20T06:01:28.053Z,19.58
2017-09-20T06:03:57.299Z,15.88
2017-09-20T06:06:26.591Z,19.73
2017-09-20T06:08:55.843Z,17.77
2017-09-20T06:11:25.086Z,22.48
2017-09-20T06:13:54.364Z,15.88
2017-09-20T06:16:23.610Z,19.30
2017-09-20T06:18:52.855Z,16.90
2017-09-20T06:21:22.126Z,14.50
2017-09-20T06:23:52.142Z,17.30
2017-09-20T06:26:22.200Z,20.48
2017-09-20T06:28:51.451Z,18.25
2017-09-20T06:31:20.719Z,16.15
2017-09-20T06:33:50.164Z,15.20
2017-09-20T06:36:20.183Z,18.85
2017-09-20T06:38:50.211Z,18.02
2017-09-20T06:41:20.250Z,17.62
2017-09-20T06:43:49.505Z,18.65
2017-09-20T06:46:18.754Z,15.75
2017-09-20T06:48:48.014Z,14.98
2017-09-20T06:51:18.031Z,15.48
2017-09-20T06:53:48.862Z,19.05
2017-09-20T06:56:18.878Z,14.68
2017-09-20T06:58:48.187Z,13.43
2017-09-20T07:01:18.202Z,13.57
2017-09-20T07:03:48.231Z,12.65
2017-09-20T07:06:18.246Z,11.10
2017-09-20T07:08:48.297Z,13.73
2017-09-20T07:11:17.551Z,13.48
2017-09-20T07:13:46.791Z,13.90
2017-09-20T07:16:16.039Z,14.32
2017-09-20T07:18:45.311Z,14.63
2017-09-20T07:21:14.559Z,13.80
2017-09-20T07:23:44.595Z,16.70
2017-09-20T07:26:13.854Z,13.43
2017-09-20T07:28:43.102Z,18.23
2017-09-20T07:31:12.459Z,17.65
2017-09-20T07:33:41.700Z,14.70
2017-09-20T07:36:10.946Z,14.73
2017-09-20T07:38:40.306Z,16.35
2017-09-20T07:41:09.553Z,17.73
2017-09-20T07:43:38.807Z,17.37
2017-09-20T07:46:08.338Z,18.33
2017-09-20T07:48:37.582Z,17.20
2017-09-20T07:51:06.828Z,18.52
2017-09-20T07:53:36.089Z,18.45
2017-09-20T07:56:06.106Z,17.80
2017-09-20T07:58:36.135Z,21.95
2017-09-20T08:01:05.618Z,24.25
2017-09-20T08:03:34.851Z,23.87
2017-09-20T08:06:04.116Z,26.90
2017-09-20T08:08:33.372Z,21.08
2017-09-20T08:11:02.635Z,20.95
2017-09-20T08:13:32.659Z,25.73
2017-09-20T08:16:01.918Z,21.02
2017-09-20T08:18:31.166Z,19.37
2017-09-20T08:21:00.431Z,22.27
2017-09-20T08:23:29.675Z,17.83
2017-09-20T08:25:58.918Z,17.80
2017-09-20T08:28:28.342Z,16.52
2017-09-20T08:30:58.359Z,21.95
2017-09-20T08:33:27.619Z,23.87
2017-09-20T08:35:56.896Z,22.77
2017-09-20T08:38:26.142Z,22.13
2017-09-20T08:40:55.402Z,19.87
2017-09-20T08:43:24.838Z,20.23
2017-09-20T08:45:54.092Z,21.33
2017-09-20T08:48:23.344Z,20.52
2017-09-20T08:50:52.709Z,19.58
2017-09-20T08:53:21.959Z,18.55
2017-09-20T08:55:51.218Z,21.62
2017-09-20T08:58:20.647Z,20.30
2017-09-20T09:00:49.902Z,20.55
2017-09-20T09:03:19.178Z,18.42
2017-09-20T09:05:48.426Z,21.20
2017-09-20T09:08:17.677Z,19.35
2017-09-20T09:10:47.794Z,18.30
2017-09-20T09:13:17.811Z,17.50
2017-09-20T09:15:47.874Z,17.37
2017-09-20T09:18:17.148Z,18.50
2017-09-20T09:20:46.403Z,18.50
2017-09-20T09:23:15.652Z,16.12
2017-09-20T09:25:44.912Z,14.70
2017-09-20T09:28:14.164Z,22.23
2017-09-20T09:30:43.424Z,18.95
2017-09-20T09:33:12.757Z,17.87
2017-09-20T09:35:42.102Z,17.15
2017-09-20T09:38:11.349Z,16.65
2017-09-20T09:40:40.682Z,22.77
2017-09-20T09:43:09.971Z,16.00
2017-09-20T09:45:39.222Z,20.67
2017-09-20T09:48:08.637Z,15.55
2017-09-20T09:50:37.879Z,13.93
2017-09-20T09:53:07.126Z,15.60
2017-09-20T09:55:37.152Z,14.50
2017-09-20T09:58:07.159Z,13.88
2017-09-20T10:00:36.431Z,14.85
2017-09-20T10:03:05.686Z,15.80
2017-09-20T10:05:35.712Z,14.57
2017-09-20T10:08:05.115Z,13.45
2017-09-20T10:10:34.359Z,16.08
2017-09-20T10:13:03.599Z,13.68
2017-09-20T10:15:33.651Z,15.82
2017-09-20T10:18:02.894Z,12.10
2017-09-20T10:20:32.141Z,15.30
2017-09-20T10:23:01.427Z,15.05
2017-09-20T10:25:31.440Z,15.85
2017-09-20T10:28:01.664Z,13.82
2017-09-20T10:30:31.671Z,14.50
2017-09-20T10:33:03.051Z,14.38
2017-09-20T10:35:32.306Z,17.40
2017-09-20T10:38:01.543Z,16.02
2017-09-20T10:40:30.811Z,15.82
2017-09-20T10:43:00.062Z,17.00
2017-09-20T10:45:29.303Z,15.50
2017-09-20T10:47:58.579Z,14.43
2017-09-20T10:50:27.832Z,12.80
2017-09-20T10:52:57.089Z,17.15
2017-09-20T10:55:26.353Z,13.98
2017-09-20T10:57:55.596Z,14.40
2017-09-20T11:00:24.839Z,17.02
2017-09-20T11:02:54.111Z,14.30
2017-09-20T11:05:23.358Z,12.50
2017-09-20T11:07:52.611Z,13.43
2017-09-20T11:10:21.979Z,11.40
2017-09-20T11:12:51.219Z,11.32
2017-09-20T11:15:21.233Z,9.65
2017-09-20T11:17:50.466Z,11.30
2017-09-20T11:20:19.702Z,10.43
2017-09-20T11:22:48.969Z,8.35
2017-09-20T11:25:18.210Z,7.37
2017-09-20T11:27:47.452Z,10.02
2017-09-20T11:30:16.714Z,11.93
2017-09-20T11:32:46.018Z,9.73
2017-09-20T11:35:15.263Z,7.65
2017-09-20T11:37:44.525Z,9.05
2017-09-20T11:40:13.766Z,14.32
2017-09-20T11:42:43.006Z,9.60
2017-09-20T11:45:12.263Z,10.57
2017-09-20T11:47:41.506Z,11.18
2017-09-20T11:50:10.763Z,11.75
2017-09-20T11:52:40.039Z,10.23
2017-09-20T11:55:10.060Z,10.63
2017-09-20T11:57:40.846Z,15.52
2017-09-20T12:00:10.131Z,10.63
2017-09-20T12:02:39.379Z,10.82
2017-09-20T12:05:08.785Z,9.68
2017-09-20T12:07:38.027Z,10.43
2017-09-20T12:10:07.271Z,10.10
2017-09-20T12:12:36.536Z,10.65
2017-09-20T12:15:05.787Z,10.30
2017-09-20T12:17:35.827Z,10.38
2017-09-20T12:20:05.066Z,8.68
2017-09-20T12:22:34.322Z,9.50
2017-09-20T12:25:04.545Z,9.05
2017-09-20T12:27:33.767Z,9.50
2017-09-20T12:30:03.007Z,13.27
2017-09-20T12:32:32.275Z,11.70
2017-09-20T12:35:01.526Z,9.95
2017-09-20T12:37:30.764Z,8.75
2017-09-20T12:40:00.020Z,11.88
2017-09-20T12:42:29.301Z,11.07
2017-09-20T12:44:58.540Z,11.82
2017-09-20T12:47:27.795Z,10.07
2017-09-20T12:49:57.038Z,10.80
2017-09-20T12:52:27.055Z,13.35
2017-09-20T12:54:57.181Z,14.20
2017-09-20T12:57:26.432Z,11.40
2017-09-20T12:59:55.679Z,12.88
2017-09-20T13:02:24.951Z,14.52
2017-09-20T13:04:54.202Z,19.17
2017-09-20T13:07:23.454Z,14.87
2017-09-20T13:09:52.716Z,12.75
2017-09-20T13:12:22.003Z,14.52
2017-09-20T13:14:51.254Z,18.65
2017-09-20T13:17:20.537Z,16.33
2017-09-20T13:19:49.773Z,14.70
2017-09-20T13:22:19.803Z,15.10
2017-09-20T13:24:49.223Z,16.50
2017-09-20T13:27:18.474Z,17.45
2017-09-20T13:29:47.986Z,16.50
2017-09-20T13:32:18.331Z,16.42
2017-09-20T13:34:47.633Z,14.93
2017-09-20T13:37:16.838Z,16.20
2017-09-20T13:39:46.108Z,17.35
2017-09-20T13:42:15.354Z,13.62
2017-09-20T13:44:44.610Z,14.05
2017-09-20T13:47:14.041Z,14.93
2017-09-20T13:49:44.043Z,18.95
2017-09-20T13:52:14.082Z,14.18
2017-09-20T13:54:43.328Z,13.62
2017-09-20T13:57:12.579Z,12.37
2017-09-20T13:59:41.856Z,14.45
2017-09-20T14:02:11.095Z,14.57
2017-09-20T14:04:40.348Z,14.18
2017-09-20T14:07:09.758Z,20.67
2017-09-20T14:09:39.780Z,14.55
2017-09-20T14:12:09.820Z,16.83
2017-09-20T14:14:39.078Z,17.50
2017-09-20T14:17:08.315Z,12.82
2017-09-20T14:19:37.582Z,10.43
2017-09-20T14:22:06.826Z,13.40
2017-09-20T14:24:36.078Z,14.85
2017-09-20T14:27:05.349Z,14.32
2017-09-20T14:29:34.595Z,14.27
2017-09-20T14:32:04.618Z,14.45
2017-09-20T14:34:34.818Z,14.75
2017-09-20T14:37:04.064Z,12.65
2017-09-20T14:39:33.319Z,18.65
2017-09-20T14:42:02.764Z,15.63
2017-09-20T14:44:32.746Z,14.52
2017-09-20T14:47:03.138Z,14.05
2017-09-20T14:49:32.387Z,8.02
2017-09-20T14:52:02.396Z,7.47
2017-09-20T14:54:32.573Z,9.30
2017-09-20T14:57:01.815Z,11.32
2017-09-20T14:59:31.052Z,8.60
2017-09-20T15:02:00.311Z,9.05
2017-09-20T15:04:29.559Z,9.90
2017-09-20T15:06:58.800Z,9.10
2017-09-20T15:09:28.207Z,8.93
2017-09-20T15:11:57.439Z,8.40
2017-09-20T15:14:26.726Z,9.80
2017-09-20T15:16:56.921Z,8.07
2017-09-20T15:19:26.155Z,10.75
2017-09-20T15:21:56.342Z,13.35
2017-09-20T15:24:25.588Z,6.57
2017-09-20T15:26:54.822Z,9.10
2017-09-20T15:29:24.087Z,10.43
2017-09-20T15:31:53.342Z,14.73
2017-09-20T15:34:22.659Z,13.48
2017-09-20T15:36:52.678Z,14.98
2017-09-20T15:39:22.690Z,14.85
2017-09-20T15:41:51.966Z,16.10
2017-09-20T15:44:21.215Z,13.52
2017-09-20T15:46:50.466Z,17.02
2017-09-20T15:49:19.763Z,13.82
2017-09-20T15:52:04.582Z,15.80
2017-09-20T15:54:38.637Z,16.33
2017-09-20T15:57:17.434Z,14.25
2017-09-20T15:59:56.798Z,14.30
2017-09-20T16:02:36.714Z,12.98
2017-09-20T16:05:24.874Z,11.65
2017-09-20T16:07:59.817Z,12.93
2017-09-20T16:10:40.294Z,11.93
2017-09-20T16:13:40.204Z,13.77
2017-09-20T16:16:19.746Z,14.40
2017-09-20T16:19:01.396Z,17.10
2017-09-20T16:21:42.905Z,16.98
2017-09-20T16:24:18.140Z,14.75
2017-09-20T16:27:06.168Z,17.02
2017-09-20T16:29:49.493Z,14.68
2017-09-20T16:32:28.954Z,15.05
2017-09-20T16:35:15.096Z,16.15
2017-09-20T16:38:03.332Z,14.13
2017-09-20T16:40:41.031Z,12.65
2017-09-20T16:43:19.409Z,15.95
2017-09-20T16:45:57.043Z,14.18
2017-09-20T16:48:33.121Z,16.17
2017-09-20T16:51:10.915Z,25.08
2017-09-20T16:53:50.321Z,15.27
2017-09-20T16:59:13.399Z,16.33
2017-09-20T17:01:45.626Z,16.02
2017-09-20T17:04:20.109Z,14.48
2017-09-20T17:06:56.047Z,16.35
2017-09-20T17:09:43.769Z,15.07
2017-09-20T17:12:21.869Z,13.95
2017-09-20T17:15:28.852Z,15.55
2017-09-20T17:18:28.335Z,12.73
2017-09-20T17:21:06.236Z,15.15
2017-09-20T17:23:56.599Z,15.18
2017-09-20T17:26:40.027Z,15.43
2017-09-20T17:29:35.119Z,14.70
2017-09-20T17:32:16.550Z,15.00
2017-09-20T17:34:59.744Z,15.80
2017-09-20T17:37:45.259Z,14.15
2017-09-20T17:40:24.833Z,23.33
2017-09-20T17:42:58.539Z,22.55
2017-09-20T17:45:41.020Z,17.05
2017-09-20T17:48:32.016Z,17.80
2017-09-20T17:51:12.767Z,18.12
2017-09-20T17:54:14.701Z,22.10
2017-09-20T18:00:07.323Z,17.15
2017-09-20T18:03:03.208Z,18.10
2017-09-20T18:05:56.561Z,16.45
2017-09-20T18:08:45.674Z,21.52
2017-09-20T18:11:28.388Z,16.83
2017-09-20T18:14:23.430Z,22.00
2017-09-20T18:17:09.206Z,17.73
2017-09-20T18:23:26.408Z,17.77
2017-09-20T18:26:06.960Z,18.70
2017-09-20T18:32:04.192Z,20.33
2017-09-20T18:38:06.682Z,18.73
2017-09-20T18:41:06.976Z,16.67
2017-09-20T18:47:03.441Z,18.90
2017-09-20T19:16:40.031Z,22.33
2017-09-20T19:19:10.234Z,22.52
2017-09-20T19:21:39.475Z,17.48
2017-09-20T19:24:08.714Z,17.42
2017-09-20T19:26:37.987Z,19.75
2017-09-20T19:29:07.243Z,18.45
2017-09-20T19:31:49.673Z,19.83
2017-09-20T19:34:39.504Z,22.90
2017-09-20T19:37:16.346Z,20.65
2017-09-20T19:43:21.450Z,23.73
2017-09-20T19:50:10.844Z,26.58
2017-09-20T20:12:51.262Z,24.08
2017-09-20T20:35:49.180Z,22.95
2017-09-20T20:38:22.766Z,24.80
2017-09-20T20:40:57.481Z,26.23
2017-09-20T20:43:39.474Z,24.20
2017-09-20T20:46:12.512Z,31.12
2017-09-20T20:48:46.763Z,26.00
2017-09-20T20:51:21.254Z,26.45
2017-09-20T20:53:53.747Z,25.92
2017-09-20T20:56:42.343Z,27.90
2017-09-20T20:59:13.510Z,32.42
2017-09-20T21:01:53.695Z,28.17
2017-09-20T21:04:23.929Z,25.17
2017-09-20T21:06:53.182Z,24.08
2017-09-20T21:09:22.434Z,25.25
2017-09-20T21:11:51.682Z,21.85
2017-09-20T21:14:21.704Z,22.10
2017-09-20T21:16:50.947Z,23.50
2017-09-20T21:19:20.190Z,19.92
2017-09-20T21:21:49.542Z,21.90
2017-09-20T21:24:18.794Z,24.00
2017-09-20T21:26:48.043Z,24.20
2017-09-20T21:29:18.067Z,20.98
2017-09-20T21:31:47.314Z,26.40
2017-09-20T21:34:16.561Z,22.65
2017-09-20T21:36:45.841Z,24.02
2017-09-20T21:39:15.846Z,23.25
2017-09-20T21:41:46.042Z,24.60
2017-09-20T21:44:15.275Z,24.95
2017-09-20T21:46:44.519Z,21.37
2017-09-20T21:49:13.781Z,25.35
2017-09-20T21:51:43.790Z,41.78
2017-09-20T21:54:13.052Z,18.40
2017-09-20T21:56:42.315Z,24.05
2017-09-20T21:59:11.565Z,22.55
2017-09-20T22:01:40.810Z,21.62
2017-09-20T22:04:10.079Z,21.90
2017-09-20T22:06:39.323Z,18.00
2017-09-20T22:09:08.574Z,21.67
2017-09-20T22:11:37.843Z,24.77
2017-09-20T22:14:07.093Z,20.48
2017-09-20T22:16:54.814Z,19.77
2017-09-20T22:19:50.127Z,19.77
2017-09-20T22:22:43.169Z,21.17
2017-09-20T22:25:36.100Z,22.37
2017-09-20T22:28:12.952Z,20.58
2017-09-20T22:30:42.980Z,24.63
2017-09-20T22:33:13.017Z,21.62
2017-09-20T22:35:42.258Z,20.67
2017-09-20T22:38:11.547Z,23.35
2017-09-20T22:40:40.917Z,27.08
2017-09-20T22:43:10.168Z,22.05
2017-09-20T22:45:39.415Z,22.45
2017-09-20T22:48:08.671Z,20.17
2017-09-20T22:50:37.932Z,30.42
2017-09-20T22:53:07.179Z,23.12
2017-09-20T22:55:37.323Z,18.87
2017-09-20T22:58:06.584Z,26.27
2017-09-20T23:00:35.836Z,22.50
2017-09-20T23:03:05.248Z,23.17
2017-09-20T23:05:34.498Z,26.92
2017-09-20T23:08:03.743Z,17.55
2017-09-20T23:10:33.155Z,20.95
2017-09-20T23:13:02.396Z,20.95
2017-09-20T23:15:31.647Z,17.95
2017-09-20T23:18:01.093Z,19.60
2017-09-20T23:20:30.347Z,19.75
2017-09-20T23:22:59.602Z,21.58
2017-09-20T23:25:29.019Z,21.65
2017-09-20T23:27:58.266Z,20.83
2017-09-20T23:30:27.511Z,22.05
2017-09-20T23:32:56.931Z,20.65
2017-09-20T23:35:26.943Z,21.27
2017-09-20T23:37:57.062Z,23.42
2017-09-20T23:40:26.312Z,22.23
2017-09-20T23:42:55.567Z,22.80
2017-09-20T23:45:24.871Z,22.80
2017-09-20T23:47:54.081Z,16.95
2017-09-20T23:50:23.333Z,20.60
2017-09-20T23:52:52.756Z,19.30
2017-09-20T23:55:21.999Z,19.40
2017-09-20T23:57:51.248Z,23.45
